sensor_id;sensor_type;location;lat;lon;timestamp;temperature;humidity
57636;DHT22;43465;50.728;4.160;2022-07-25T00:01:40;26.00;67.10
57636;DHT22;43465;50.728;4.160;2022-07-25T00:04:05;26.00;67.00
57636;DHT22;43465;50.728;4.160;2022-07-25T00:06:33;26.00;67.00
57636;DHT22;43465;50.728;4.160;2022-07-25T00:09:00;26.00;67.00
57636;DHT22;43465;50.728;4.160;2022-07-25T00:11:25;25.90;67.20
57636;DHT22;43465;50.728;4.160;2022-07-25T00:13:51;25.90;67.40
57636;DHT22;43465;50.728;4.160;2022-07-25T00:16:17;25.90;67.70
57636;DHT22;43465;50.728;4.160;2022-07-25T00:18:43;25.80;67.70
57636;DHT22;43465;50.728;4.160;2022-07-25T00:21:09;25.80;67.80
57636;DHT22;43465;50.728;4.160;2022-07-25T00:23:35;25.80;67.80
57636;DHT22;43465;50.728;4.160;2022-07-25T00:26:00;25.80;67.90
57636;DHT22;43465;50.728;4.160;2022-07-25T00:28:26;25.70;68.00
57636;DHT22;43465;50.728;4.160;2022-07-25T00:30:52;25.70;68.20
57636;DHT22;43465;50.728;4.160;2022-07-25T00:33:18;25.70;68.40
57636;DHT22;43465;50.728;4.160;2022-07-25T00:35:43;25.60;68.60
57636;DHT22;43465;50.728;4.160;2022-07-25T00:38:09;25.70;68.80
57636;DHT22;43465;50.728;4.160;2022-07-25T00:40:34;25.60;69.10
57636;DHT22;43465;50.728;4.160;2022-07-25T00:43:00;25.50;69.00
57636;DHT22;43465;50.728;4.160;2022-07-25T00:45:26;25.60;69.00
57636;DHT22;43465;50.728;4.160;2022-07-25T00:47:52;25.50;69.20
57636;DHT22;43465;50.728;4.160;2022-07-25T00:50:17;25.50;69.40
57636;DHT22;43465;50.728;4.160;2022-07-25T00:52:44;25.50;69.30
57636;DHT22;43465;50.728;4.160;2022-07-25T00:55:11;25.50;69.40
57636;DHT22;43465;50.728;4.160;2022-07-25T00:57:37;25.50;69.50
57636;DHT22;43465;50.728;4.160;2022-07-25T01:00:05;25.40;69.60
57636;DHT22;43465;50.728;4.160;2022-07-25T01:02:31;25.40;69.90
57636;DHT22;43465;50.728;4.160;2022-07-25T01:04:57;25.30;69.70
57636;DHT22;43465;50.728;4.160;2022-07-25T01:07:23;25.40;69.80
57636;DHT22;43465;50.728;4.160;2022-07-25T01:09:50;25.30;70.00
57636;DHT22;43465;50.728;4.160;2022-07-25T01:12:16;25.30;70.10
57636;DHT22;43465;50.728;4.160;2022-07-25T01:14:41;25.30;70.50
57636;DHT22;43465;50.728;4.160;2022-07-25T01:17:07;25.30;70.70
57636;DHT22;43465;50.728;4.160;2022-07-25T01:19:33;25.20;70.80
57636;DHT22;43465;50.728;4.160;2022-07-25T01:21:58;25.20;70.80
57636;DHT22;43465;50.728;4.160;2022-07-25T01:24:24;25.20;70.90
57636;DHT22;43465;50.728;4.160;2022-07-25T01:26:50;25.10;71.40
57636;DHT22;43465;50.728;4.160;2022-07-25T01:29:16;25.00;72.80
57636;DHT22;43465;50.728;4.160;2022-07-25T01:31:41;24.60;73.80
57636;DHT22;43465;50.728;4.160;2022-07-25T01:34:07;24.40;74.40
57636;DHT22;43465;50.728;4.160;2022-07-25T01:36:32;24.30;75.10
57636;DHT22;43465;50.728;4.160;2022-07-25T01:38:58;24.20;75.20
57636;DHT22;43465;50.728;4.160;2022-07-25T01:41:24;24.20;75.90
57636;DHT22;43465;50.728;4.160;2022-07-25T01:43:50;24.30;75.50
57636;DHT22;43465;50.728;4.160;2022-07-25T01:46:15;24.20;75.80
57636;DHT22;43465;50.728;4.160;2022-07-25T01:48:41;24.20;76.80
57636;DHT22;43465;50.728;4.160;2022-07-25T01:51:07;24.10;76.70
57636;DHT22;43465;50.728;4.160;2022-07-25T01:53:35;24.20;77.00
57636;DHT22;43465;50.728;4.160;2022-07-25T01:56:00;24.20;76.90
57636;DHT22;43465;50.728;4.160;2022-07-25T01:58:26;24.20;77.00
57636;DHT22;43465;50.728;4.160;2022-07-25T02:00:52;24.20;76.90
57636;DHT22;43465;50.728;4.160;2022-07-25T02:03:18;24.20;77.00
57636;DHT22;43465;50.728;4.160;2022-07-25T02:06:02;24.20;77.30
57636;DHT22;43465;50.728;4.160;2022-07-25T02:08:29;24.10;77.60
57636;DHT22;43465;50.728;4.160;2022-07-25T02:10:56;24.10;77.90
57636;DHT22;43465;50.728;4.160;2022-07-25T02:13:22;24.10;77.90
57636;DHT22;43465;50.728;4.160;2022-07-25T02:15:48;24.00;78.10
57636;DHT22;43465;50.728;4.160;2022-07-25T02:18:14;24.00;78.20
57636;DHT22;43465;50.728;4.160;2022-07-25T02:20:40;24.00;78.30
57636;DHT22;43465;50.728;4.160;2022-07-25T02:23:06;23.90;78.80
57636;DHT22;43465;50.728;4.160;2022-07-25T02:25:32;23.90;79.10
57636;DHT22;43465;50.728;4.160;2022-07-25T02:27:58;23.90;79.20
57636;DHT22;43465;50.728;4.160;2022-07-25T02:30:24;23.90;79.30
57636;DHT22;43465;50.728;4.160;2022-07-25T02:32:50;23.90;79.30
57636;DHT22;43465;50.728;4.160;2022-07-25T02:35:16;23.80;80.00
57636;DHT22;43465;50.728;4.160;2022-07-25T02:37:42;23.80;80.20
57636;DHT22;43465;50.728;4.160;2022-07-25T02:40:08;23.70;80.00
57636;DHT22;43465;50.728;4.160;2022-07-25T02:42:34;23.80;79.90
57636;DHT22;43465;50.728;4.160;2022-07-25T02:45:00;23.80;79.90
57636;DHT22;43465;50.728;4.160;2022-07-25T02:47:26;23.80;80.10
57636;DHT22;43465;50.728;4.160;2022-07-25T02:49:51;23.80;80.30
57636;DHT22;43465;50.728;4.160;2022-07-25T02:52:17;23.80;80.30
57636;DHT22;43465;50.728;4.160;2022-07-25T02:54:42;23.80;80.30
57636;DHT22;43465;50.728;4.160;2022-07-25T02:57:08;23.80;80.30
57636;DHT22;43465;50.728;4.160;2022-07-25T02:59:33;23.80;80.10
57636;DHT22;43465;50.728;4.160;2022-07-25T03:01:59;23.80;80.30
57636;DHT22;43465;50.728;4.160;2022-07-25T03:04:25;23.80;80.10
57636;DHT22;43465;50.728;4.160;2022-07-25T03:06:50;23.80;80.10
57636;DHT22;43465;50.728;4.160;2022-07-25T03:09:16;23.80;80.10
57636;DHT22;43465;50.728;4.160;2022-07-25T03:11:42;23.80;80.20
57636;DHT22;43465;50.728;4.160;2022-07-25T03:14:07;23.80;80.30
57636;DHT22;43465;50.728;4.160;2022-07-25T03:16:33;23.80;80.40
57636;DHT22;43465;50.728;4.160;2022-07-25T03:18:59;23.80;80.60
57636;DHT22;43465;50.728;4.160;2022-07-25T03:21:24;23.80;80.80
57636;DHT22;43465;50.728;4.160;2022-07-25T03:23:50;23.80;80.90
57636;DHT22;43465;50.728;4.160;2022-07-25T03:26:16;23.70;81.20
57636;DHT22;43465;50.728;4.160;2022-07-25T03:28:41;23.70;82.50
57636;DHT22;43465;50.728;4.160;2022-07-25T03:31:07;23.60;83.10
57636;DHT22;43465;50.728;4.160;2022-07-25T03:33:33;23.50;83.20
57636;DHT22;43465;50.728;4.160;2022-07-25T03:35:59;23.40;83.30
57636;DHT22;43465;50.728;4.160;2022-07-25T03:38:24;23.40;83.50
57636;DHT22;43465;50.728;4.160;2022-07-25T03:40:50;23.40;83.80
57636;DHT22;43465;50.728;4.160;2022-07-25T03:43:16;23.40;84.00
57636;DHT22;43465;50.728;4.160;2022-07-25T03:45:41;23.30;84.00
57636;DHT22;43465;50.728;4.160;2022-07-25T03:48:07;23.30;84.10
57636;DHT22;43465;50.728;4.160;2022-07-25T03:50:33;23.20;84.70
57636;DHT22;43465;50.728;4.160;2022-07-25T03:52:59;23.20;84.90
57636;DHT22;43465;50.728;4.160;2022-07-25T03:55:24;23.20;84.90
57636;DHT22;43465;50.728;4.160;2022-07-25T03:57:50;23.20;85.20
57636;DHT22;43465;50.728;4.160;2022-07-25T04:00:16;23.10;85.40
57636;DHT22;43465;50.728;4.160;2022-07-25T04:02:41;23.20;85.50
57636;DHT22;43465;50.728;4.160;2022-07-25T04:05:08;23.20;85.00
57636;DHT22;43465;50.728;4.160;2022-07-25T04:07:34;23.20;84.90
57636;DHT22;43465;50.728;4.160;2022-07-25T04:10:01;23.20;84.40
57636;DHT22;43465;50.728;4.160;2022-07-25T04:12:26;23.20;84.30
57636;DHT22;43465;50.728;4.160;2022-07-25T04:14:52;23.20;84.30
57636;DHT22;43465;50.728;4.160;2022-07-25T04:17:17;23.20;84.10
57636;DHT22;43465;50.728;4.160;2022-07-25T04:19:43;23.20;84.40
57636;DHT22;43465;50.728;4.160;2022-07-25T04:22:09;23.20;83.60
57636;DHT22;43465;50.728;4.160;2022-07-25T04:24:34;23.10;82.80
57636;DHT22;43465;50.728;4.160;2022-07-25T04:27:00;23.10;80.60
57636;DHT22;43465;50.728;4.160;2022-07-25T04:29:26;23.10;81.10
57636;DHT22;43465;50.728;4.160;2022-07-25T04:31:51;23.00;80.60
57636;DHT22;43465;50.728;4.160;2022-07-25T04:34:17;23.00;79.40
57636;DHT22;43465;50.728;4.160;2022-07-25T04:36:43;22.90;80.20
57636;DHT22;43465;50.728;4.160;2022-07-25T04:39:08;22.90;79.80
57636;DHT22;43465;50.728;4.160;2022-07-25T04:41:34;22.90;79.30
57636;DHT22;43465;50.728;4.160;2022-07-25T04:44:00;23.00;78.90
57636;DHT22;43465;50.728;4.160;2022-07-25T04:46:25;22.90;79.10
57636;DHT22;43465;50.728;4.160;2022-07-25T04:48:51;22.90;78.20
57636;DHT22;43465;50.728;4.160;2022-07-25T04:51:17;22.90;78.00
57636;DHT22;43465;50.728;4.160;2022-07-25T04:53:43;22.80;78.20
57636;DHT22;43465;50.728;4.160;2022-07-25T04:56:09;22.80;77.70
57636;DHT22;43465;50.728;4.160;2022-07-25T04:58:35;22.80;77.10
57636;DHT22;43465;50.728;4.160;2022-07-25T05:01:00;22.80;76.90
57636;DHT22;43465;50.728;4.160;2022-07-25T05:03:26;22.70;77.20
57636;DHT22;43465;50.728;4.160;2022-07-25T05:05:52;22.50;78.10
57636;DHT22;43465;50.728;4.160;2022-07-25T05:08:17;22.40;77.80
57636;DHT22;43465;50.728;4.160;2022-07-25T05:10:43;22.40;78.50
57636;DHT22;43465;50.728;4.160;2022-07-25T05:13:09;22.30;78.80
57636;DHT22;43465;50.728;4.160;2022-07-25T05:15:35;22.20;79.40
57636;DHT22;43465;50.728;4.160;2022-07-25T05:18:00;22.30;79.60
57636;DHT22;43465;50.728;4.160;2022-07-25T05:20:26;22.40;79.90
57636;DHT22;43465;50.728;4.160;2022-07-25T05:22:52;22.50;79.70
57636;DHT22;43465;50.728;4.160;2022-07-25T05:25:18;22.60;80.20
57636;DHT22;43465;50.728;4.160;2022-07-25T05:27:44;22.60;81.10
57636;DHT22;43465;50.728;4.160;2022-07-25T05:30:11;22.70;82.10
57636;DHT22;43465;50.728;4.160;2022-07-25T05:32:37;22.80;82.70
57636;DHT22;43465;50.728;4.160;2022-07-25T05:35:04;22.70;83.20
57636;DHT22;43465;50.728;4.160;2022-07-25T05:37:30;22.70;84.00
57636;DHT22;43465;50.728;4.160;2022-07-25T05:39:55;22.70;84.20
57636;DHT22;43465;50.728;4.160;2022-07-25T05:42:21;22.60;84.80
57636;DHT22;43465;50.728;4.160;2022-07-25T05:44:47;22.60;84.80
57636;DHT22;43465;50.728;4.160;2022-07-25T05:47:12;22.50;86.50
57636;DHT22;43465;50.728;4.160;2022-07-25T05:49:38;22.50;86.80
57636;DHT22;43465;50.728;4.160;2022-07-25T05:52:05;22.50;86.90
57636;DHT22;43465;50.728;4.160;2022-07-25T05:54:31;22.50;87.00
57636;DHT22;43465;50.728;4.160;2022-07-25T05:56:57;22.60;86.90
57636;DHT22;43465;50.728;4.160;2022-07-25T05:59:22;22.70;85.90
57636;DHT22;43465;50.728;4.160;2022-07-25T06:01:48;22.80;84.80
57636;DHT22;43465;50.728;4.160;2022-07-25T06:04:13;22.80;84.80
57636;DHT22;43465;50.728;4.160;2022-07-25T06:06:39;22.90;84.20
57636;DHT22;43465;50.728;4.160;2022-07-25T06:09:04;22.90;83.50
57636;DHT22;43465;50.728;4.160;2022-07-25T06:11:31;23.00;83.90
57636;DHT22;43465;50.728;4.160;2022-07-25T06:13:57;23.10;83.60
57636;DHT22;43465;50.728;4.160;2022-07-25T06:16:23;23.10;83.50
57636;DHT22;43465;50.728;4.160;2022-07-25T06:18:49;23.10;84.30
57636;DHT22;43465;50.728;4.160;2022-07-25T06:21:14;23.10;84.00
57636;DHT22;43465;50.728;4.160;2022-07-25T06:23:40;23.20;83.90
57636;DHT22;43465;50.728;4.160;2022-07-25T06:26:09;23.20;82.80
57636;DHT22;43465;50.728;4.160;2022-07-25T06:28:36;23.20;84.20
57636;DHT22;43465;50.728;4.160;2022-07-25T06:31:02;23.30;83.70
57636;DHT22;43465;50.728;4.160;2022-07-25T06:33:28;23.40;84.70
57636;DHT22;43465;50.728;4.160;2022-07-25T06:35:54;23.50;83.90
57636;DHT22;43465;50.728;4.160;2022-07-25T06:38:19;23.70;83.80
57636;DHT22;43465;50.728;4.160;2022-07-25T06:40:45;23.70;83.80
57636;DHT22;43465;50.728;4.160;2022-07-25T06:43:11;23.80;84.90
57636;DHT22;43465;50.728;4.160;2022-07-25T06:45:36;23.70;85.10
57636;DHT22;43465;50.728;4.160;2022-07-25T06:48:02;23.80;84.60
57636;DHT22;43465;50.728;4.160;2022-07-25T06:50:28;23.80;85.20
57636;DHT22;43465;50.728;4.160;2022-07-25T06:52:53;23.90;85.40
57636;DHT22;43465;50.728;4.160;2022-07-25T06:55:19;24.10;85.10
57636;DHT22;43465;50.728;4.160;2022-07-25T06:57:45;23.90;86.00
57636;DHT22;43465;50.728;4.160;2022-07-25T07:00:12;23.80;85.90
57636;DHT22;43465;50.728;4.160;2022-07-25T07:02:55;23.80;86.90
57636;DHT22;43465;50.728;4.160;2022-07-25T07:05:22;23.80;85.60
57636;DHT22;43465;50.728;4.160;2022-07-25T07:07:48;23.80;86.80
57636;DHT22;43465;50.728;4.160;2022-07-25T07:10:15;23.70;87.30
57636;DHT22;43465;50.728;4.160;2022-07-25T07:12:41;23.60;88.60
57636;DHT22;43465;50.728;4.160;2022-07-25T07:15:07;23.60;88.80
57636;DHT22;43465;50.728;4.160;2022-07-25T07:17:32;23.70;88.20
57636;DHT22;43465;50.728;4.160;2022-07-25T07:19:58;23.70;88.30
57636;DHT22;43465;50.728;4.160;2022-07-25T07:22:24;23.70;88.40
57636;DHT22;43465;50.728;4.160;2022-07-25T07:24:49;23.70;88.70
57636;DHT22;43465;50.728;4.160;2022-07-25T07:27:15;23.80;88.10
57636;DHT22;43465;50.728;4.160;2022-07-25T07:29:41;23.90;88.80
57636;DHT22;43465;50.728;4.160;2022-07-25T07:32:06;24.00;88.80
57636;DHT22;43465;50.728;4.160;2022-07-25T07:34:32;24.10;88.40
57636;DHT22;43465;50.728;4.160;2022-07-25T07:36:58;24.10;88.80
57636;DHT22;43465;50.728;4.160;2022-07-25T07:39:24;24.10;89.70
57636;DHT22;43465;50.728;4.160;2022-07-25T07:41:49;24.20;89.20
57636;DHT22;43465;50.728;4.160;2022-07-25T07:44:15;24.20;89.20
57636;DHT22;43465;50.728;4.160;2022-07-25T07:46:41;24.10;89.10
57636;DHT22;43465;50.728;4.160;2022-07-25T07:49:06;24.10;90.30
57636;DHT22;43465;50.728;4.160;2022-07-25T07:51:32;24.10;89.70
57636;DHT22;43465;50.728;4.160;2022-07-25T07:53:58;24.10;90.00
57636;DHT22;43465;50.728;4.160;2022-07-25T07:56:42;24.10;90.10
57636;DHT22;43465;50.728;4.160;2022-07-25T07:59:08;24.00;90.60
57636;DHT22;43465;50.728;4.160;2022-07-25T08:01:34;23.90;89.90
57636;DHT22;43465;50.728;4.160;2022-07-25T08:04:00;23.80;90.60
57636;DHT22;43465;50.728;4.160;2022-07-25T08:06:25;23.70;91.10
57636;DHT22;43465;50.728;4.160;2022-07-25T08:08:52;23.60;90.90
57636;DHT22;43465;50.728;4.160;2022-07-25T08:11:18;23.70;91.30
57636;DHT22;43465;50.728;4.160;2022-07-25T08:13:44;23.70;90.80
57636;DHT22;43465;50.728;4.160;2022-07-25T08:16:09;23.50;91.20
57636;DHT22;43465;50.728;4.160;2022-07-25T08:18:36;23.50;91.80
57636;DHT22;43465;50.728;4.160;2022-07-25T08:21:03;23.50;91.30
57636;DHT22;43465;50.728;4.160;2022-07-25T08:23:31;23.50;91.30
57636;DHT22;43465;50.728;4.160;2022-07-25T08:25:59;23.60;91.90
57636;DHT22;43465;50.728;4.160;2022-07-25T08:28:25;23.60;91.30
57636;DHT22;43465;50.728;4.160;2022-07-25T08:30:51;23.70;91.60
57636;DHT22;43465;50.728;4.160;2022-07-25T08:33:17;23.80;91.70
57636;DHT22;43465;50.728;4.160;2022-07-25T08:35:53;23.90;91.20
57636;DHT22;43465;50.728;4.160;2022-07-25T08:38:21;24.10;91.20
57636;DHT22;43465;50.728;4.160;2022-07-25T08:40:46;24.10;90.40
57636;DHT22;43465;50.728;4.160;2022-07-25T08:43:13;24.20;91.00
57636;DHT22;43465;50.728;4.160;2022-07-25T08:48:10;24.40;91.10
57636;DHT22;43465;50.728;4.160;2022-07-25T08:50:37;24.50;90.80
57636;DHT22;43465;50.728;4.160;2022-07-25T08:53:03;24.70;91.00
57636;DHT22;43465;50.728;4.160;2022-07-25T08:55:29;24.80;91.00
57636;DHT22;43465;50.728;4.160;2022-07-25T08:57:55;24.90;89.10
57636;DHT22;43465;50.728;4.160;2022-07-25T09:00:26;24.90;88.50
57636;DHT22;43465;50.728;4.160;2022-07-25T09:02:57;24.80;89.40
57636;DHT22;43465;50.728;4.160;2022-07-25T09:05:24;24.80;89.60
57636;DHT22;43465;50.728;4.160;2022-07-25T09:07:54;24.90;90.00
57636;DHT22;43465;50.728;4.160;2022-07-25T09:12:55;25.10;88.20
57636;DHT22;43465;50.728;4.160;2022-07-25T09:15:26;25.10;88.00
57636;DHT22;43465;50.728;4.160;2022-07-25T09:17:52;25.30;88.50
57636;DHT22;43465;50.728;4.160;2022-07-25T09:20:18;25.40;86.60
57636;DHT22;43465;50.728;4.160;2022-07-25T09:22:46;25.50;84.60
57636;DHT22;43465;50.728;4.160;2022-07-25T09:25:26;25.50;86.40
57636;DHT22;43465;50.728;4.160;2022-07-25T09:27:54;25.50;87.20
57636;DHT22;43465;50.728;4.160;2022-07-25T09:30:20;25.70;84.80
57636;DHT22;43465;50.728;4.160;2022-07-25T09:32:45;25.80;83.90
57636;DHT22;43465;50.728;4.160;2022-07-25T09:35:12;25.70;84.50
57636;DHT22;43465;50.728;4.160;2022-07-25T09:37:38;25.80;84.30
57636;DHT22;43465;50.728;4.160;2022-07-25T09:40:12;25.90;83.80
57636;DHT22;43465;50.728;4.160;2022-07-25T09:42:39;26.10;85.80
57636;DHT22;43465;50.728;4.160;2022-07-25T09:45:10;26.30;84.30
57636;DHT22;43465;50.728;4.160;2022-07-25T09:47:54;26.60;84.00
57636;DHT22;43465;50.728;4.160;2022-07-25T09:50:21;26.60;80.60
57636;DHT22;43465;50.728;4.160;2022-07-25T09:52:50;26.50;81.40
57636;DHT22;43465;50.728;4.160;2022-07-25T09:55:16;26.60;82.40
57636;DHT22;43465;50.728;4.160;2022-07-25T09:57:42;26.80;80.70
57636;DHT22;43465;50.728;4.160;2022-07-25T10:00:12;27.00;80.30
57636;DHT22;43465;50.728;4.160;2022-07-25T10:07:56;26.80;78.40
57636;DHT22;43465;50.728;4.160;2022-07-25T10:10:28;26.80;78.90
57636;DHT22;43465;50.728;4.160;2022-07-25T10:13:00;26.80;79.60
57636;DHT22;43465;50.728;4.160;2022-07-25T10:15:26;26.90;78.10
57636;DHT22;43465;50.728;4.160;2022-07-25T10:18:02;26.80;77.20
57636;DHT22;43465;50.728;4.160;2022-07-25T10:20:28;26.60;79.20
57636;DHT22;43465;50.728;4.160;2022-07-25T10:22:54;26.60;78.00
57636;DHT22;43465;50.728;4.160;2022-07-25T10:25:19;26.60;77.10
57636;DHT22;43465;50.728;4.160;2022-07-25T10:27:51;26.50;77.00
57636;DHT22;43465;50.728;4.160;2022-07-25T10:30:42;26.50;77.80
57636;DHT22;43465;50.728;4.160;2022-07-25T10:33:14;26.30;78.30
57636;DHT22;43465;50.728;4.160;2022-07-25T10:35:40;26.30;78.20
57636;DHT22;43465;50.728;4.160;2022-07-25T10:38:06;26.20;77.90
57636;DHT22;43465;50.728;4.160;2022-07-25T10:40:43;26.00;77.20
57636;DHT22;43465;50.728;4.160;2022-07-25T10:43:16;25.90;77.40
57636;DHT22;43465;50.728;4.160;2022-07-25T10:45:55;25.60;79.70
57636;DHT22;43465;50.728;4.160;2022-07-25T10:48:29;25.70;79.40
57636;DHT22;43465;50.728;4.160;2022-07-25T10:50:56;25.50;78.10
57636;DHT22;43465;50.728;4.160;2022-07-25T10:58:59;25.00;79.80
57636;DHT22;43465;50.728;4.160;2022-07-25T11:03:53;24.70;78.90
57636;DHT22;43465;50.728;4.160;2022-07-25T11:06:34;24.40;80.80
57636;DHT22;43465;50.728;4.160;2022-07-25T11:09:01;24.40;80.70
57636;DHT22;43465;50.728;4.160;2022-07-25T11:11:42;24.40;80.10
57636;DHT22;43465;50.728;4.160;2022-07-25T11:14:32;24.40;81.30
57636;DHT22;43465;50.728;4.160;2022-07-25T11:17:10;24.30;80.80
57636;DHT22;43465;50.728;4.160;2022-07-25T11:19:37;24.30;81.30
57636;DHT22;43465;50.728;4.160;2022-07-25T11:22:02;24.20;81.20
57636;DHT22;43465;50.728;4.160;2022-07-25T11:24:40;24.10;82.20
57636;DHT22;43465;50.728;4.160;2022-07-25T11:27:07;24.10;83.30
57636;DHT22;43465;50.728;4.160;2022-07-25T11:29:34;24.20;82.30
57636;DHT22;43465;50.728;4.160;2022-07-25T11:32:10;24.10;82.30
57636;DHT22;43465;50.728;4.160;2022-07-25T11:34:41;24.20;82.90
57636;DHT22;43465;50.728;4.160;2022-07-25T11:37:10;24.20;82.50
57636;DHT22;43465;50.728;4.160;2022-07-25T11:39:40;24.20;83.00
57636;DHT22;43465;50.728;4.160;2022-07-25T11:42:08;24.20;83.80
57636;DHT22;43465;50.728;4.160;2022-07-25T11:44:41;24.30;84.70
57636;DHT22;43465;50.728;4.160;2022-07-25T11:47:08;24.30;84.60
57636;DHT22;43465;50.728;4.160;2022-07-25T11:49:48;24.50;83.60
57636;DHT22;43465;50.728;4.160;2022-07-25T11:52:33;24.60;83.00
57636;DHT22;43465;50.728;4.160;2022-07-25T11:55:01;24.80;83.40
57636;DHT22;43465;50.728;4.160;2022-07-25T11:57:29;24.80;82.10
57636;DHT22;43465;50.728;4.160;2022-07-25T11:59:56;24.80;82.80
57636;DHT22;43465;50.728;4.160;2022-07-25T12:02:30;24.90;81.90
57636;DHT22;43465;50.728;4.160;2022-07-25T12:05:04;24.90;82.50
57636;DHT22;43465;50.728;4.160;2022-07-25T12:07:43;25.00;82.20
57636;DHT22;43465;50.728;4.160;2022-07-25T12:10:15;25.20;82.80
57636;DHT22;43465;50.728;4.160;2022-07-25T12:15:15;25.30;81.10
57636;DHT22;43465;50.728;4.160;2022-07-25T12:17:41;25.20;80.80
57636;DHT22;43465;50.728;4.160;2022-07-25T12:20:18;25.00;80.60
57636;DHT22;43465;50.728;4.160;2022-07-25T12:22:45;25.00;81.20
57636;DHT22;43465;50.728;4.160;2022-07-25T12:25:12;25.00;79.70
57636;DHT22;43465;50.728;4.160;2022-07-25T12:27:38;24.90;79.80
57636;DHT22;43465;50.728;4.160;2022-07-25T12:30:05;24.90;81.30
57636;DHT22;43465;50.728;4.160;2022-07-25T12:32:31;25.10;82.40
57636;DHT22;43465;50.728;4.160;2022-07-25T12:34:57;25.20;81.00
57636;DHT22;43465;50.728;4.160;2022-07-25T12:37:24;25.20;80.50
57636;DHT22;43465;50.728;4.160;2022-07-25T12:39:50;25.20;78.90
57636;DHT22;43465;50.728;4.160;2022-07-25T12:42:15;25.30;78.00
57636;DHT22;43465;50.728;4.160;2022-07-25T12:44:41;25.40;77.80
57636;DHT22;43465;50.728;4.160;2022-07-25T12:47:07;25.50;79.10
57636;DHT22;43465;50.728;4.160;2022-07-25T12:49:32;25.70;77.20
57636;DHT22;43465;50.728;4.160;2022-07-25T12:51:58;25.80;76.10
57636;DHT22;43465;50.728;4.160;2022-07-25T12:54:24;25.70;74.60
57636;DHT22;43465;50.728;4.160;2022-07-25T12:56:50;25.50;75.50
57636;DHT22;43465;50.728;4.160;2022-07-25T12:59:15;25.50;76.10
57636;DHT22;43465;50.728;4.160;2022-07-25T13:01:41;25.30;76.00
57636;DHT22;43465;50.728;4.160;2022-07-25T13:04:07;25.30;77.00
57636;DHT22;43465;50.728;4.160;2022-07-25T13:06:34;25.30;77.00
57636;DHT22;43465;50.728;4.160;2022-07-25T13:09:00;25.30;76.20
57636;DHT22;43465;50.728;4.160;2022-07-25T13:11:26;25.20;77.00
57636;DHT22;43465;50.728;4.160;2022-07-25T13:13:52;25.10;77.40
57636;DHT22;43465;50.728;4.160;2022-07-25T13:16:17;25.10;77.00
57636;DHT22;43465;50.728;4.160;2022-07-25T13:18:43;24.90;78.80
57636;DHT22;43465;50.728;4.160;2022-07-25T13:21:09;25.10;76.70
57636;DHT22;43465;50.728;4.160;2022-07-25T13:23:35;25.20;75.90
57636;DHT22;43465;50.728;4.160;2022-07-25T13:26:01;25.30;75.50
57636;DHT22;43465;50.728;4.160;2022-07-25T13:28:27;25.50;76.40
57636;DHT22;43465;50.728;4.160;2022-07-25T13:30:53;25.60;75.30
57636;DHT22;43465;50.728;4.160;2022-07-25T13:33:18;25.70;73.50
57636;DHT22;43465;50.728;4.160;2022-07-25T13:35:44;25.70;71.90
57636;DHT22;43465;50.728;4.160;2022-07-25T13:38:10;25.70;72.50
57636;DHT22;43465;50.728;4.160;2022-07-25T13:40:37;25.70;72.00
57636;DHT22;43465;50.728;4.160;2022-07-25T13:43:07;25.70;71.90
57636;DHT22;43465;50.728;4.160;2022-07-25T13:45:32;25.70;70.50
57636;DHT22;43465;50.728;4.160;2022-07-25T13:47:58;25.70;71.20
57636;DHT22;43465;50.728;4.160;2022-07-25T13:50:24;25.70;71.60
57636;DHT22;43465;50.728;4.160;2022-07-25T13:52:50;25.80;71.70
57636;DHT22;43465;50.728;4.160;2022-07-25T13:55:16;26.00;71.30
57636;DHT22;43465;50.728;4.160;2022-07-25T13:57:43;26.20;72.70
57636;DHT22;43465;50.728;4.160;2022-07-25T14:00:11;26.40;69.20
57636;DHT22;43465;50.728;4.160;2022-07-25T14:02:36;26.50;69.90
57636;DHT22;43465;50.728;4.160;2022-07-25T14:05:02;26.60;69.60
57636;DHT22;43465;50.728;4.160;2022-07-25T14:07:28;26.50;68.70
57636;DHT22;43465;50.728;4.160;2022-07-25T14:09:54;26.50;68.40
57636;DHT22;43465;50.728;4.160;2022-07-25T14:12:20;26.60;69.30
57636;DHT22;43465;50.728;4.160;2022-07-25T14:14:45;26.80;68.40
57636;DHT22;43465;50.728;4.160;2022-07-25T14:17:11;27.10;65.80
57636;DHT22;43465;50.728;4.160;2022-07-25T14:19:37;27.30;64.90
57636;DHT22;43465;50.728;4.160;2022-07-25T14:22:02;27.50;65.30
57636;DHT22;43465;50.728;4.160;2022-07-25T14:24:28;27.80;64.40
57636;DHT22;43465;50.728;4.160;2022-07-25T14:26:53;28.40;59.30
57636;DHT22;43465;50.728;4.160;2022-07-25T14:29:20;28.90;59.50
57636;DHT22;43465;50.728;4.160;2022-07-25T14:31:46;29.10;58.40
57636;DHT22;43465;50.728;4.160;2022-07-25T14:34:11;28.80;56.80
57636;DHT22;43465;50.728;4.160;2022-07-25T14:36:40;28.70;58.10
57636;DHT22;43465;50.728;4.160;2022-07-25T14:39:06;28.80;59.60
57636;DHT22;43465;50.728;4.160;2022-07-25T14:41:31;28.70;59.70
57636;DHT22;43465;50.728;4.160;2022-07-25T14:43:57;28.40;58.90
57636;DHT22;43465;50.728;4.160;2022-07-25T14:46:24;28.90;60.10
57636;DHT22;43465;50.728;4.160;2022-07-25T14:48:49;29.30;58.20
57636;DHT22;43465;50.728;4.160;2022-07-25T14:51:16;29.10;56.20
57636;DHT22;43465;50.728;4.160;2022-07-25T14:53:42;28.80;57.80
57636;DHT22;43465;50.728;4.160;2022-07-25T14:56:08;29.00;59.00
57636;DHT22;43465;50.728;4.160;2022-07-25T14:58:34;29.60;58.00
57636;DHT22;43465;50.728;4.160;2022-07-25T15:01:00;30.60;57.00
57636;DHT22;43465;50.728;4.160;2022-07-25T15:03:26;30.60;55.60
57636;DHT22;43465;50.728;4.160;2022-07-25T15:05:51;30.10;56.00
57636;DHT22;43465;50.728;4.160;2022-07-25T15:08:17;30.10;55.60
57636;DHT22;43465;50.728;4.160;2022-07-25T15:10:43;30.20;56.80
57636;DHT22;43465;50.728;4.160;2022-07-25T15:13:08;30.30;56.10
57636;DHT22;43465;50.728;4.160;2022-07-25T15:15:34;30.80;54.00
57636;DHT22;43465;50.728;4.160;2022-07-25T15:18:01;30.50;53.50
57636;DHT22;43465;50.728;4.160;2022-07-25T15:20:26;30.10;53.60
57636;DHT22;43465;50.728;4.160;2022-07-25T15:22:52;30.20;54.00
57636;DHT22;43465;50.728;4.160;2022-07-25T15:25:18;30.90;54.80
57636;DHT22;43465;50.728;4.160;2022-07-25T15:27:43;31.00;51.90
57636;DHT22;43465;50.728;4.160;2022-07-25T15:30:09;30.40;51.60
57636;DHT22;43465;50.728;4.160;2022-07-25T15:32:35;29.70;53.10
57636;DHT22;43465;50.728;4.160;2022-07-25T15:35:03;29.20;53.20
57636;DHT22;43465;50.728;4.160;2022-07-25T15:37:29;29.10;55.10
57636;DHT22;43465;50.728;4.160;2022-07-25T15:39:55;28.90;54.80
57636;DHT22;43465;50.728;4.160;2022-07-25T15:42:20;28.70;56.40
57636;DHT22;43465;50.728;4.160;2022-07-25T15:44:46;28.70;56.70
57636;DHT22;43465;50.728;4.160;2022-07-25T15:47:12;29.10;56.10
57636;DHT22;43465;50.728;4.160;2022-07-25T15:49:37;29.00;56.40